createdAt,value
2022-10-24T00:01:08.258Z,95.65
2022-10-24T00:03:34.637Z,95.71
2022-10-24T00:06:01.023Z,95.79
2022-10-24T00:08:27.398Z,95.93
2022-10-24T00:10:53.750Z,96.29
2022-10-24T00:13:20.111Z,96.46
2022-10-24T00:15:47.537Z,96.43
2022-10-24T00:18:14.130Z,96.62
2022-10-24T00:20:40.797Z,96.44
2022-10-24T00:23:07.644Z,96.26
2022-10-24T00:25:34.026Z,97.21
2022-10-24T00:28:00.441Z,97.58
2022-10-24T00:30:26.855Z,97.42
2022-10-24T00:32:53.448Z,98.08
2022-10-24T00:35:19.856Z,98.03
2022-10-24T00:37:46.519Z,97.92
2022-10-24T00:40:15.824Z,97.95
2022-10-24T00:42:42.247Z,97.48
2022-10-24T00:45:27.421Z,98.18
2022-10-24T00:47:53.884Z,98.17
2022-10-24T00:50:20.320Z,98.20
2022-10-24T00:52:47.240Z,99.33
2022-10-24T00:55:14.567Z,98.82
2022-10-24T00:57:45.007Z,99.11
2022-10-24T01:00:13.742Z,98.95
2022-10-24T01:02:40.210Z,98.65
2022-10-24T01:05:07.652Z,98.49
2022-10-24T01:07:34.002Z,98.18
2022-10-24T01:10:00.360Z,98.38
2022-10-24T01:12:45.989Z,98.70
2022-10-24T01:15:12.537Z,99.04
2022-10-24T01:17:50.822Z,98.49
2022-10-24T01:20:36.063Z,98.92
2022-10-24T01:23:07.115Z,98.74
2022-10-24T01:25:42.567Z,98.82
2022-10-24T01:28:14.791Z,98.96
2022-10-24T01:30:42.406Z,99.58
2022-10-24T01:33:41.284Z,99.36
2022-10-24T01:36:13.868Z,99.38
2022-10-24T01:38:40.216Z,99.37
2022-10-24T01:41:12.297Z,99.66
2022-10-24T01:43:43.165Z,99.80
2022-10-24T01:46:13.986Z,100.00
2022-10-24T01:48:43.741Z,100.00
2022-10-24T01:51:11.430Z,100.00
2022-10-24T01:53:38.922Z,100.00
2022-10-24T01:56:06.750Z,100.00
2022-10-24T01:58:33.146Z,99.93
2022-10-24T02:01:02.158Z,99.73
2022-10-24T02:03:34.414Z,100.00
2022-10-24T02:06:08.176Z,99.96
2022-10-24T02:08:37.540Z,100.00
2022-10-24T02:11:06.904Z,99.92
2022-10-24T02:13:42.322Z,99.77
2022-10-24T02:16:09.350Z,100.00
2022-10-24T02:18:35.739Z,99.83
2022-10-24T02:21:05.241Z,100.00
2022-10-24T02:23:57.978Z,100.00
2022-10-24T02:26:30.245Z,100.00
2022-10-24T02:28:58.911Z,100.00
2022-10-24T02:31:27.136Z,99.89
2022-10-24T02:33:54.920Z,100.00
2022-10-24T02:36:24.216Z,100.00
2022-10-24T02:38:52.511Z,99.98
2022-10-24T02:41:21.809Z,100.00
2022-10-24T02:43:50.167Z,100.00
2022-10-24T02:46:18.516Z,100.00
2022-10-24T02:48:47.078Z,100.00
2022-10-24T02:51:14.281Z,100.00
2022-10-24T02:53:40.712Z,100.00
2022-10-24T02:56:07.296Z,100.00
2022-10-24T02:58:33.672Z,100.00
2022-10-24T03:01:00.182Z,100.00
2022-10-24T03:03:26.666Z,100.00
2022-10-24T03:05:53.054Z,100.00
2022-10-24T03:08:19.517Z,100.00
2022-10-24T03:10:45.911Z,100.00
2022-10-24T03:13:12.278Z,100.00
2022-10-24T03:15:38.862Z,100.00
2022-10-24T03:18:05.293Z,100.00
2022-10-24T03:20:31.730Z,100.00
2022-10-24T03:22:58.139Z,100.00
2022-10-24T03:25:24.558Z,100.00
2022-10-24T03:27:50.935Z,100.00
2022-10-24T03:30:17.389Z,100.00
2022-10-24T03:32:44.202Z,100.00
2022-10-24T03:35:13.336Z,100.00
2022-10-24T03:37:40.751Z,100.00
2022-10-24T03:40:07.506Z,100.00
2022-10-24T03:42:33.871Z,100.00
2022-10-24T03:45:00.259Z,100.00
2022-10-24T03:47:26.932Z,100.00
2022-10-24T03:49:53.294Z,100.00
2022-10-24T03:52:19.730Z,100.00
2022-10-24T03:54:46.118Z,100.00
2022-10-24T03:57:12.528Z,100.00
2022-10-24T03:59:38.999Z,100.00
2022-10-24T04:02:05.941Z,100.00
2022-10-24T04:04:32.712Z,100.00
2022-10-24T04:07:00.426Z,100.00
2022-10-24T04:09:27.282Z,100.00
2022-10-24T04:11:53.680Z,100.00
2022-10-24T04:14:20.866Z,100.00
2022-10-24T04:16:47.226Z,100.00
2022-10-24T04:19:13.614Z,100.00
2022-10-24T04:21:40.206Z,100.00
2022-10-24T04:24:06.751Z,100.00
2022-10-24T04:26:33.153Z,100.00
2022-10-24T04:28:59.513Z,100.00
2022-10-24T04:31:25.895Z,100.00
2022-10-24T04:33:52.276Z,100.00
2022-10-24T04:36:18.711Z,100.00
2022-10-24T04:38:45.092Z,100.00
2022-10-24T04:41:12.361Z,100.00
2022-10-24T04:43:39.073Z,100.00
2022-10-24T04:46:05.545Z,100.00
2022-10-24T04:48:31.962Z,100.00
2022-10-24T04:50:58.463Z,100.00
2022-10-24T04:53:24.954Z,100.00
2022-10-24T04:55:51.640Z,100.00
2022-10-24T04:58:18.088Z,100.00
2022-10-24T05:00:46.703Z,100.00
2022-10-24T05:03:13.388Z,100.00
2022-10-24T05:05:39.768Z,100.00
2022-10-24T05:08:06.141Z,100.00
2022-10-24T05:10:32.500Z,100.00
2022-10-24T05:12:58.931Z,100.00
2022-10-24T05:15:25.412Z,100.00
2022-10-24T05:17:51.844Z,100.00
2022-10-24T05:20:18.255Z,100.00
2022-10-24T05:22:44.967Z,100.00
2022-10-24T05:25:11.564Z,100.00
2022-10-24T05:27:37.934Z,100.00
2022-10-24T05:30:04.500Z,100.00
2022-10-24T05:32:32.101Z,100.00
2022-10-24T05:35:00.187Z,100.00
2022-10-24T05:37:26.662Z,100.00
2022-10-24T05:39:53.047Z,100.00
2022-10-24T05:42:19.447Z,100.00
2022-10-24T05:44:45.908Z,100.00
2022-10-24T05:47:12.603Z,100.00
2022-10-24T05:49:38.966Z,100.00
2022-10-24T05:52:05.611Z,100.00
2022-10-24T05:54:42.537Z,100.00
2022-10-24T05:57:18.636Z,100.00
2022-10-24T05:59:45.063Z,100.00
2022-10-24T06:02:18.643Z,100.00
2022-10-24T06:04:45.213Z,100.00
2022-10-24T06:07:12.121Z,100.00
2022-10-24T06:09:39.395Z,100.00
2022-10-24T06:12:08.405Z,100.00
2022-10-24T06:14:34.771Z,100.00
2022-10-24T06:17:01.204Z,100.00
2022-10-24T06:19:27.582Z,100.00
2022-10-24T06:21:53.957Z,100.00
2022-10-24T06:24:20.415Z,100.00
2022-10-24T06:26:46.781Z,100.00
2022-10-24T06:29:13.153Z,100.00
2022-10-24T06:31:39.578Z,100.00
2022-10-24T06:34:05.996Z,100.00
2022-10-24T06:36:32.447Z,100.00
2022-10-24T06:38:59.091Z,100.00
2022-10-24T06:41:25.552Z,100.00
2022-10-24T06:43:53.870Z,100.00
2022-10-24T06:46:23.359Z,100.00
2022-10-24T06:48:53.323Z,100.00
2022-10-24T06:51:19.736Z,100.00
2022-10-24T06:53:46.220Z,100.00
2022-10-24T06:56:13.451Z,100.00
2022-10-24T06:58:39.927Z,100.00
2022-10-24T07:01:10.244Z,100.00
2022-10-24T07:03:37.214Z,100.00
2022-10-24T07:06:05.968Z,100.00
2022-10-24T07:08:32.393Z,100.00
2022-10-24T07:10:58.778Z,100.00
2022-10-24T07:13:25.167Z,100.00
2022-10-24T07:15:54.357Z,100.00
2022-10-24T07:18:21.001Z,100.00
2022-10-24T07:20:47.420Z,100.00
2022-10-24T07:23:14.092Z,100.00
2022-10-24T07:25:40.979Z,100.00
2022-10-24T07:28:08.392Z,100.00
2022-10-24T07:30:35.030Z,100.00
2022-10-24T07:33:01.426Z,100.00
2022-10-24T07:35:27.806Z,100.00
2022-10-24T07:37:54.173Z,100.00
2022-10-24T07:40:20.928Z,100.00
2022-10-24T07:42:48.470Z,100.00
2022-10-24T07:45:15.155Z,100.00
2022-10-24T07:47:41.593Z,100.00
2022-10-24T07:50:08.381Z,100.00
2022-10-24T07:52:34.765Z,100.00
2022-10-24T07:55:01.112Z,100.00
2022-10-24T07:57:27.488Z,100.00
2022-10-24T07:59:54.207Z,100.00
2022-10-24T08:02:20.584Z,100.00
2022-10-24T08:04:46.968Z,100.00
2022-10-24T08:07:13.725Z,100.00
2022-10-24T08:09:41.898Z,100.00
2022-10-24T08:12:08.543Z,100.00
2022-10-24T08:14:37.055Z,100.00
2022-10-24T08:17:04.726Z,100.00
2022-10-24T08:19:31.822Z,100.00
2022-10-24T08:21:58.271Z,100.00
2022-10-24T08:24:24.796Z,100.00
2022-10-24T08:26:51.615Z,100.00
2022-10-24T08:29:22.629Z,100.00
2022-10-24T08:31:49.726Z,100.00
2022-10-24T08:34:17.065Z,100.00
2022-10-24T08:36:43.530Z,100.00
2022-10-24T08:39:09.988Z,100.00
2022-10-24T08:41:46.726Z,100.00
2022-10-24T08:44:31.689Z,100.00
2022-10-24T08:47:11.065Z,100.00
2022-10-24T08:49:50.596Z,100.00
2022-10-24T08:52:23.268Z,100.00
2022-10-24T08:54:50.456Z,100.00
2022-10-24T08:57:24.063Z,100.00
2022-10-24T08:59:52.106Z,100.00
2022-10-24T09:02:20.739Z,100.00
2022-10-24T09:05:16.287Z,100.00
2022-10-24T09:07:46.267Z,100.00
2022-10-24T09:10:19.121Z,100.00
2022-10-24T09:12:45.561Z,100.00
2022-10-24T09:15:22.890Z,100.00
2022-10-24T09:17:49.710Z,100.00
2022-10-24T09:20:16.060Z,100.00
2022-10-24T09:22:44.306Z,100.00
2022-10-24T09:25:12.670Z,100.00
2022-10-24T09:27:39.983Z,100.00
2022-10-24T09:30:07.822Z,100.00
2022-10-24T09:32:35.972Z,100.00
2022-10-24T09:35:07.246Z,100.00
2022-10-24T09:37:41.230Z,100.00
2022-10-24T09:40:19.946Z,100.00
2022-10-24T09:42:52.473Z,100.00
2022-10-24T09:45:18.998Z,100.00
2022-10-24T09:47:45.980Z,100.00
2022-10-24T09:50:22.404Z,100.00
2022-10-24T09:52:49.982Z,100.00
2022-10-24T09:55:16.706Z,100.00
2022-10-24T09:57:43.416Z,100.00
2022-10-24T10:00:20.683Z,100.00
2022-10-24T10:02:57.927Z,100.00
2022-10-24T10:05:24.348Z,100.00
2022-10-24T10:07:51.592Z,100.00
2022-10-24T10:10:17.968Z,100.00
2022-10-24T10:12:46.253Z,100.00
2022-10-24T10:15:28.004Z,100.00
2022-10-24T10:17:56.901Z,100.00
2022-10-24T10:20:25.180Z,100.00
2022-10-24T10:22:51.604Z,100.00
2022-10-24T10:25:31.565Z,100.00
2022-10-24T10:28:01.040Z,100.00
2022-10-24T10:30:29.563Z,100.00
2022-10-24T10:33:14.626Z,100.00
2022-10-24T10:35:47.006Z,100.00
2022-10-24T10:38:13.361Z,100.00
2022-10-24T10:41:03.431Z,100.00
2022-10-24T10:43:38.096Z,100.00
2022-10-24T10:46:24.041Z,100.00
2022-10-24T10:48:59.490Z,100.00
2022-10-24T10:51:48.120Z,100.00
2022-10-24T10:54:35.869Z,100.00
2022-10-24T10:57:12.651Z,100.00
2022-10-24T10:59:48.745Z,100.00
2022-10-24T11:02:17.959Z,100.00
2022-10-24T11:04:44.466Z,100.00
2022-10-24T11:07:29.291Z,100.00
2022-10-24T11:10:08.149Z,100.00
2022-10-24T11:12:36.637Z,100.00
2022-10-24T11:15:03.033Z,100.00
2022-10-24T11:17:40.016Z,100.00
2022-10-24T11:20:15.318Z,100.00
2022-10-24T11:22:54.222Z,100.00
2022-10-24T11:25:27.045Z,100.00
2022-10-24T11:27:59.366Z,100.00
2022-10-24T11:30:38.000Z,100.00
2022-10-24T11:33:11.147Z,100.00
2022-10-24T11:35:42.275Z,100.00
2022-10-24T11:38:18.457Z,100.00
2022-10-24T11:40:46.612Z,100.00
2022-10-24T11:43:13.076Z,100.00
2022-10-24T11:45:39.450Z,100.00
2022-10-24T11:48:19.381Z,100.00
2022-10-24T11:50:49.807Z,100.00
2022-10-24T11:53:39.398Z,100.00
2022-10-24T11:56:27.237Z,100.00
2022-10-24T11:59:18.873Z,100.00
2022-10-24T12:01:51.163Z,100.00
2022-10-24T12:04:20.511Z,100.00
2022-10-24T12:07:07.712Z,100.00
2022-10-24T12:09:48.206Z,100.00
2022-10-24T12:12:30.062Z,100.00
2022-10-24T12:15:19.686Z,100.00
2022-10-24T12:18:04.571Z,100.00
2022-10-24T12:20:31.916Z,100.00
2022-10-24T12:22:59.989Z,100.00
2022-10-24T12:25:26.376Z,100.00
2022-10-24T12:28:01.328Z,100.00
2022-10-24T12:30:29.886Z,100.00
2022-10-24T12:32:58.148Z,100.00
2022-10-24T12:35:30.397Z,100.00
2022-10-24T12:37:57.486Z,100.00
2022-10-24T12:40:42.674Z,100.00
2022-10-24T12:43:14.425Z,100.00
2022-10-24T12:45:40.880Z,100.00
2022-10-24T12:48:15.490Z,100.00
2022-10-24T12:50:42.023Z,100.00
2022-10-24T12:53:19.290Z,100.00
2022-10-24T12:55:48.528Z,100.00
2022-10-24T12:58:30.329Z,100.00
2022-10-24T13:01:09.456Z,100.00
2022-10-24T13:03:44.756Z,100.00
2022-10-24T13:06:35.805Z,100.00
2022-10-24T13:09:04.978Z,100.00
2022-10-24T13:11:44.207Z,100.00
2022-10-24T13:14:22.961Z,100.00
2022-10-24T13:17:15.407Z,100.00
2022-10-24T13:19:41.848Z,100.00
2022-10-24T13:22:27.857Z,100.00
2022-10-24T13:24:54.394Z,100.00
2022-10-24T13:27:25.315Z,100.00
2022-10-24T13:29:51.688Z,100.00
2022-10-24T13:32:20.133Z,100.00
2022-10-24T13:34:50.230Z,100.00
2022-10-24T13:37:21.999Z,100.00
2022-10-24T13:39:51.351Z,100.00
2022-10-24T13:42:20.470Z,100.00
2022-10-24T13:44:49.324Z,100.00
2022-10-24T13:47:15.695Z,100.00
2022-10-24T13:49:52.006Z,100.00
2022-10-24T13:52:21.726Z,100.00
2022-10-24T13:54:52.150Z,100.00
2022-10-24T13:57:36.333Z,100.00
2022-10-24T14:00:08.574Z,100.00
2022-10-24T14:02:39.416Z,100.00
2022-10-24T14:05:06.182Z,100.00
2022-10-24T14:07:33.801Z,100.00
2022-10-24T14:10:02.758Z,100.00
2022-10-24T14:12:31.440Z,100.00
2022-10-24T14:14:58.905Z,100.00
2022-10-24T14:17:34.499Z,100.00
2022-10-24T14:20:03.373Z,100.00
2022-10-24T14:22:39.770Z,100.00
2022-10-24T14:25:26.873Z,100.00
2022-10-24T14:27:54.528Z,100.00
2022-10-24T14:30:22.612Z,100.00
2022-10-24T14:32:49.146Z,100.00
2022-10-24T14:35:16.188Z,100.00
2022-10-24T14:37:43.231Z,100.00
2022-10-24T14:40:17.637Z,100.00
2022-10-24T14:42:46.427Z,100.00
2022-10-24T14:45:23.875Z,100.00
2022-10-24T14:47:50.954Z,100.00
2022-10-24T14:50:37.343Z,100.00
2022-10-24T14:53:04.535Z,100.00
2022-10-24T14:55:31.415Z,100.00
2022-10-24T14:57:58.136Z,100.00
2022-10-24T15:00:25.933Z,100.00
2022-10-24T15:02:53.790Z,100.00
2022-10-24T15:05:20.138Z,100.00
2022-10-24T15:08:02.984Z,100.00
2022-10-24T15:10:42.242Z,100.00
2022-10-24T15:13:11.742Z,100.00
2022-10-24T15:15:43.885Z,100.00
2022-10-24T15:18:19.186Z,100.00
2022-10-24T15:20:46.998Z,100.00
2022-10-24T15:23:21.606Z,100.00
2022-10-24T15:25:57.550Z,100.00
2022-10-24T15:28:45.145Z,100.00
2022-10-24T15:31:12.821Z,100.00
2022-10-24T15:36:06.905Z,100.00
2022-10-24T15:38:35.662Z,100.00
2022-10-24T15:41:04.204Z,100.00
2022-10-24T15:43:30.622Z,100.00
2022-10-24T15:45:57.789Z,100.00
2022-10-24T15:48:24.360Z,100.00
2022-10-24T15:50:50.900Z,100.00
2022-10-24T15:53:18.780Z,100.00
2022-10-24T15:55:45.333Z,100.00
2022-10-24T15:58:12.511Z,100.00
2022-10-24T16:00:39.662Z,100.00
2022-10-24T16:03:07.981Z,100.00
2022-10-24T16:05:39.023Z,100.00
2022-10-24T16:08:05.482Z,100.00
2022-10-24T16:10:31.944Z,100.00
2022-10-24T16:12:58.322Z,100.00
2022-10-24T16:15:26.941Z,100.00
2022-10-24T16:17:53.439Z,100.00
2022-10-24T16:20:19.961Z,100.00
2022-10-24T16:22:46.991Z,100.00
2022-10-24T16:25:17.638Z,100.00
2022-10-24T16:27:44.587Z,100.00
2022-10-24T16:30:12.594Z,100.00
2022-10-24T16:32:38.975Z,100.00
2022-10-24T16:35:05.766Z,100.00
2022-10-24T16:37:32.154Z,100.00
2022-10-24T16:39:59.008Z,100.00
2022-10-24T16:42:25.437Z,100.00
2022-10-24T16:44:52.084Z,100.00
2022-10-24T16:47:18.439Z,100.00
2022-10-24T16:49:47.576Z,100.00
2022-10-24T16:52:14.048Z,100.00
2022-10-24T16:54:40.467Z,100.00
2022-10-24T16:57:07.011Z,100.00
2022-10-24T16:59:33.402Z,100.00
2022-10-24T17:01:59.931Z,100.00
2022-10-24T17:04:29.081Z,100.00
2022-10-24T17:06:56.726Z,100.00
2022-10-24T17:09:23.104Z,100.00
2022-10-24T17:11:49.554Z,100.00
2022-10-24T17:14:16.030Z,100.00
2022-10-24T17:16:43.266Z,100.00
2022-10-24T17:19:16.290Z,100.00
2022-10-24T17:21:44.336Z,100.00
2022-10-24T17:24:11.341Z,100.00
2022-10-24T17:26:37.799Z,100.00
2022-10-24T17:29:04.832Z,100.00
2022-10-24T17:31:31.301Z,100.00
2022-10-24T17:33:57.855Z,100.00
2022-10-24T17:36:29.870Z,100.00
2022-10-24T17:39:10.284Z,100.00
2022-10-24T17:41:40.731Z,100.00
2022-10-24T17:44:07.751Z,100.00
2022-10-24T17:46:34.260Z,100.00
2022-10-24T17:49:00.659Z,100.00
2022-10-24T17:51:27.570Z,100.00
2022-10-24T17:53:53.965Z,100.00
2022-10-24T17:56:23.199Z,100.00
2022-10-24T17:58:52.004Z,100.00
2022-10-24T18:01:18.586Z,100.00
2022-10-24T18:03:45.038Z,100.00
2022-10-24T18:06:12.523Z,100.00
2022-10-24T18:08:38.954Z,100.00
2022-10-24T18:11:06.064Z,100.00
2022-10-24T18:13:32.843Z,100.00
2022-10-24T18:15:59.289Z,100.00
2022-10-24T18:18:25.747Z,100.00
2022-10-24T18:20:52.229Z,100.00
2022-10-24T18:23:18.604Z,100.00
2022-10-24T18:25:44.997Z,100.00
2022-10-24T18:28:11.438Z,100.00
2022-10-24T18:30:37.861Z,100.00
2022-10-24T18:33:04.391Z,100.00
2022-10-24T18:35:33.129Z,100.00
2022-10-24T18:37:59.747Z,100.00
2022-10-24T18:40:26.244Z,100.00
2022-10-24T18:42:58.794Z,100.00
2022-10-24T18:45:26.529Z,100.00
2022-10-24T18:47:53.595Z,100.00
2022-10-24T18:50:21.457Z,100.00
2022-10-24T18:53:06.584Z,100.00
2022-10-24T18:55:34.171Z,100.00
2022-10-24T18:58:00.615Z,100.00
2022-10-24T19:00:28.977Z,100.00
2022-10-24T19:03:14.227Z,100.00
2022-10-24T19:05:43.912Z,100.00
2022-10-24T19:08:14.780Z,100.00
2022-10-24T19:10:41.645Z,100.00
2022-10-24T19:13:08.147Z,100.00
2022-10-24T19:15:35.672Z,100.00
2022-10-24T19:18:02.096Z,100.00
2022-10-24T19:20:28.571Z,100.00
2022-10-24T19:22:54.965Z,100.00
2022-10-24T19:25:21.346Z,100.00
2022-10-24T19:27:49.375Z,100.00
2022-10-24T19:30:15.810Z,100.00
2022-10-24T19:32:42.227Z,100.00
2022-10-24T19:35:08.618Z,100.00
2022-10-24T19:37:37.030Z,100.00
2022-10-24T19:40:04.064Z,100.00
2022-10-24T19:42:30.451Z,100.00
2022-10-24T19:44:56.890Z,100.00
2022-10-24T19:47:23.313Z,100.00
2022-10-24T19:49:49.782Z,100.00
2022-10-24T19:52:16.440Z,100.00
2022-10-24T19:54:42.828Z,100.00
2022-10-24T19:57:09.255Z,100.00
2022-10-24T19:59:36.309Z,100.00
2022-10-24T20:02:03.877Z,100.00
2022-10-24T20:04:30.845Z,100.00
2022-10-24T20:06:57.329Z,100.00
2022-10-24T20:09:23.763Z,100.00
2022-10-24T20:11:50.163Z,100.00
2022-10-24T20:14:16.624Z,100.00
2022-10-24T20:16:43.042Z,100.00
2022-10-24T20:19:09.490Z,100.00
2022-10-24T20:21:37.580Z,100.00
2022-10-24T20:24:04.289Z,100.00
2022-10-24T20:26:30.679Z,100.00
2022-10-24T20:28:57.882Z,100.00
2022-10-24T20:31:28.836Z,100.00
2022-10-24T20:34:04.968Z,100.00
2022-10-24T20:36:34.258Z,100.00
2022-10-24T20:39:01.503Z,100.00
2022-10-24T20:41:28.433Z,100.00
2022-10-24T20:43:54.876Z,100.00
2022-10-24T20:46:21.276Z,100.00
2022-10-24T20:48:47.903Z,100.00
2022-10-24T20:51:15.513Z,100.00
2022-10-24T20:53:42.393Z,100.00
2022-10-24T20:56:10.434Z,100.00
2022-10-24T20:58:37.915Z,100.00
2022-10-24T21:01:07.315Z,100.00
2022-10-24T21:03:34.560Z,100.00
2022-10-24T21:06:01.190Z,100.00
2022-10-24T21:08:27.610Z,100.00
2022-10-24T21:10:54.022Z,100.00
2022-10-24T21:13:20.409Z,100.00
2022-10-24T21:15:46.829Z,100.00
2022-10-24T21:18:13.234Z,100.00
2022-10-24T21:20:39.680Z,100.00
2022-10-24T21:23:06.063Z,100.00
2022-10-24T21:25:32.468Z,100.00
2022-10-24T21:27:58.921Z,100.00
2022-10-24T21:30:26.436Z,100.00
2022-10-24T21:32:52.786Z,100.00
2022-10-24T21:35:19.181Z,100.00
2022-10-24T21:37:45.720Z,100.00
2022-10-24T21:40:12.453Z,100.00
2022-10-24T21:42:38.835Z,100.00
2022-10-24T21:45:05.456Z,100.00
2022-10-24T21:47:31.881Z,100.00
2022-10-24T21:49:58.257Z,100.00
2022-10-24T21:52:24.629Z,100.00
2022-10-24T21:54:50.992Z,100.00
2022-10-24T21:57:17.368Z,100.00
2022-10-24T21:59:43.796Z,100.00
2022-10-24T22:02:10.782Z,100.00
2022-10-24T22:04:37.402Z,100.00
2022-10-24T22:07:05.957Z,100.00
2022-10-24T22:09:32.316Z,100.00
2022-10-24T22:11:58.820Z,100.00
2022-10-24T22:14:25.271Z,100.00
2022-10-24T22:16:51.910Z,100.00
2022-10-24T22:19:18.515Z,100.00
2022-10-24T22:21:46.471Z,100.00
2022-10-24T22:24:14.514Z,100.00
2022-10-24T22:26:41.362Z,100.00
2022-10-24T22:29:08.606Z,100.00
2022-10-24T22:31:35.583Z,100.00
2022-10-24T22:34:02.285Z,100.00
2022-10-24T22:36:47.487Z,100.00
2022-10-24T22:39:18.606Z,100.00
2022-10-24T22:41:45.474Z,100.00
2022-10-24T22:44:13.122Z,100.00
2022-10-24T22:46:58.101Z,100.00
2022-10-24T22:49:27.519Z,100.00
2022-10-24T22:51:54.084Z,100.00
2022-10-24T22:54:23.299Z,100.00
2022-10-24T22:56:49.862Z,100.00
2022-10-24T22:59:16.530Z,100.00
2022-10-24T23:01:55.602Z,100.00
2022-10-24T23:04:40.852Z,100.00
2022-10-24T23:07:10.235Z,100.00
2022-10-24T23:09:36.635Z,100.00
2022-10-24T23:12:08.183Z,100.00
2022-10-24T23:14:34.761Z,100.00
2022-10-24T23:17:01.397Z,100.00
2022-10-24T23:19:29.264Z,100.00
2022-10-24T23:21:58.753Z,100.00
2022-10-24T23:24:25.451Z,100.00
2022-10-24T23:27:10.463Z,100.00
2022-10-24T23:29:37.845Z,100.00
2022-10-24T23:32:04.775Z,100.00
2022-10-24T23:34:31.760Z,100.00
2022-10-24T23:37:03.022Z,100.00
2022-10-24T23:39:31.812Z,100.00
2022-10-24T23:41:58.423Z,100.00
2022-10-24T23:44:25.062Z,100.00
2022-10-24T23:47:01.091Z,100.00
2022-10-24T23:49:27.477Z,100.00
2022-10-24T23:51:53.830Z,100.00
2022-10-24T23:54:24.502Z,100.00
2022-10-24T23:56:51.072Z,100.00
2022-10-24T23:59:17.444Z,100.00
